AFL426 UUEE-HESH
Flight info
| Callsign | AFL426 |
|---|---|
| Flight time | 5h 48m |
| Altitude | 35000 |
| Route | TOGMO3H TOGMO M56 ABAGI B105 NIMTA/K0907F360 B105 NATIT/K0900F350 DCT MOLED N50 LIDUS/K0895F360 G242 ZG/K0895F350 DCT ITAKA/K0895F360 DCT KUDAS DCT KUFAN/N0482F360 DCT NOLGA UG261 TBN UW706 SIV UT54 ZACUF/N0480F380 UT54 HALIL/N0484F370 UW77 AYT UM855 TOMBI M855 RASDA A16 CVO L677 MENLI N697 SISIK V603 ALSOB ALSOB1G |
| Aircraft | B77W/H-SDE1E2E3FGHIJ2J3J4J5M1RWXY/LB1D1 |
Departure
| Time | 2026-05-01 09:12 |
|---|---|
| Airport | Sheremetyevo International Airport (UUEE) |
Arrival
| Time | 2026-05-01 15:00 |
|---|---|
| Airport | Sharm El Sheikh International Airport (HESH) |
| Time | Latitude | Longitude | Altitude | Speed | Heading |
|---|---|---|---|---|---|
| 2026-05-01 08:31 | 55.97930 | 37.41229 | 644 ft | 0 kts | 255° |
| 2026-05-01 08:59 | 55.97932 | 37.41242 | 644 ft | 4 kts | 253° |
| 2026-05-01 08:59 | 55.97941 | 37.41287 | 647 ft | 4 kts | 244° |
| 2026-05-01 08:59 | 55.97949 | 37.41315 | 647 ft | 4 kts | 231° |
| 2026-05-01 08:59 | 55.97968 | 37.41342 | 646 ft | 4 kts | 184° |
| 2026-05-01 09:00 | 55.97976 | 37.41342 | 644 ft | 0 kts | 165° |
| 2026-05-01 09:03 | 55.97955 | 37.41352 | 649 ft | 7 kts | 165° |
| 2026-05-01 09:04 | 55.97904 | 37.41377 | 649 ft | 8 kts | 165° |
| 2026-05-01 09:04 | 55.97851 | 37.41402 | 647 ft | 8 kts | 165° |
| 2026-05-01 09:04 | 55.97799 | 37.41427 | 647 ft | 8 kts | 165° |
| 2026-05-01 09:04 | 55.97746 | 37.41452 | 647 ft | 8 kts | 165° |
| 2026-05-01 09:05 | 55.97725 | 37.41462 | 647 ft | 2 kts | 165° |
| 2026-05-01 09:05 | 55.97706 | 37.41475 | 649 ft | 5 kts | 153° |
| 2026-05-01 09:05 | 55.97676 | 37.41541 | 647 ft | 9 kts | 130° |
| 2026-05-01 09:05 | 55.97630 | 37.41613 | 649 ft | 9 kts | 129° |
| 2026-05-01 09:06 | 55.97621 | 37.41724 | 649 ft | 11 kts | 85° |
| 2026-05-01 09:06 | 55.97639 | 37.41878 | 648 ft | 15 kts | 76° |
| 2026-05-01 09:06 | 55.97667 | 37.42062 | 645 ft | 15 kts | 75° |
| 2026-05-01 09:06 | 55.97696 | 37.42246 | 645 ft | 15 kts | 74° |
| 2026-05-01 09:07 | 55.97722 | 37.42431 | 649 ft | 15 kts | 76° |
| 2026-05-01 09:07 | 55.97748 | 37.42616 | 647 ft | 15 kts | 74° |
| 2026-05-01 09:07 | 55.97778 | 37.42800 | 648 ft | 15 kts | 74° |
| 2026-05-01 09:07 | 55.97805 | 37.42985 | 647 ft | 15 kts | 76° |
| 2026-05-01 09:08 | 55.97831 | 37.43169 | 647 ft | 15 kts | 75° |
| 2026-05-01 09:08 | 55.97860 | 37.43353 | 647 ft | 15 kts | 75° |
| 2026-05-01 09:08 | 55.97888 | 37.43535 | 644 ft | 15 kts | 75° |
| 2026-05-01 09:08 | 55.97915 | 37.43719 | 644 ft | 15 kts | 75° |
| 2026-05-01 09:09 | 55.97940 | 37.43881 | 647 ft | 13 kts | 75° |
| 2026-05-01 09:09 | 55.97917 | 37.44022 | 648 ft | 13 kts | 142° |
| 2026-05-01 09:09 | 55.97833 | 37.44067 | 649 ft | 13 kts | 183° |
| 2026-05-01 09:09 | 55.97775 | 37.43960 | 648 ft | 13 kts | 248° |
| 2026-05-01 09:10 | 55.97767 | 37.43918 | 650 ft | 0 kts | 255° |
| 2026-05-01 09:11 | 55.97767 | 37.43917 | 650 ft | 3 kts | 255° |
| 2026-05-01 09:11 | 55.97727 | 37.43663 | 649 ft | 49 kts | 255° |
| 2026-05-01 09:11 | 55.97574 | 37.42638 | 651 ft | 120 kts | 255° |
| 2026-05-01 09:11 | 55.97304 | 37.40845 | 654 ft | 175 kts | 256° |
| 2026-05-01 09:12 | 55.96965 | 37.38684 | 1095 ft | 183 kts | 255° |
| 2026-05-01 09:12 | 55.96621 | 37.36454 | 1758 ft | 189 kts | 255° |
| 2026-05-01 09:12 | 55.96274 | 37.34207 | 2470 ft | 191 kts | 255° |
| 2026-05-01 09:12 | 55.95901 | 37.31806 | 2711 ft | 217 kts | 255° |
| 2026-05-01 09:13 | 55.95472 | 37.29066 | 2987 ft | 241 kts | 255° |
| 2026-05-01 09:13 | 55.95010 | 37.26130 | 3655 ft | 249 kts | 255° |
| 2026-05-01 09:13 | 55.94538 | 37.23121 | 4391 ft | 255 kts | 255° |
| 2026-05-01 09:13 | 55.94054 | 37.20052 | 5213 ft | 258 kts | 256° |
| 2026-05-01 09:14 | 55.93564 | 37.16947 | 5987 ft | 262 kts | 256° |
| 2026-05-01 09:14 | 55.93065 | 37.13793 | 6727 ft | 266 kts | 255° |
| 2026-05-01 09:14 | 55.92498 | 37.10616 | 7421 ft | 271 kts | 253° |
| 2026-05-01 09:14 | 55.91918 | 37.07380 | 8135 ft | 275 kts | 255° |
| 2026-05-01 09:15 | 55.91414 | 37.04136 | 8775 ft | 276 kts | 265° |
| 2026-05-01 09:15 | 55.91662 | 37.00787 | 9266 ft | 276 kts | 299° |
| 2026-05-01 09:15 | 55.92872 | 36.98220 | 9912 ft | 271 kts | 325° |
| 2026-05-01 09:15 | 55.94435 | 36.96271 | 9936 ft | 278 kts | 327° |
| 2026-05-01 09:16 | 55.96022 | 36.94314 | 9967 ft | 276 kts | 327° |
| 2026-05-01 09:16 | 55.97621 | 36.92503 | 9944 ft | 268 kts | 338° |
| 2026-05-01 09:16 | 55.99428 | 36.91943 | 9982 ft | 267 kts | 6° |
| 2026-05-01 09:17 | 56.02868 | 36.94438 | 11145 ft | 271 kts | 32° |
| 2026-05-01 09:17 | 56.04308 | 36.96571 | 11613 ft | 283 kts | 52° |
| 2026-05-01 09:17 | 56.04708 | 37.03701 | 12949 ft | 313 kts | 103° |
| 2026-05-01 09:18 | 56.03974 | 37.07406 | 13799 ft | 319 kts | 106° |
| 2026-05-01 09:18 | 56.02312 | 37.14850 | 15542 ft | 323 kts | 107° |
| 2026-05-01 09:19 | 56.00620 | 37.22351 | 17269 ft | 328 kts | 105° |
| 2026-05-01 09:19 | 55.99783 | 37.26103 | 18106 ft | 331 kts | 104° |
| 2026-05-01 09:19 | 55.98931 | 37.29939 | 18894 ft | 334 kts | 104° |
| 2026-05-01 09:20 | 55.97208 | 37.37718 | 20156 ft | 340 kts | 104° |
| 2026-05-01 09:20 | 55.95456 | 37.45612 | 20183 ft | 341 kts | 104° |
| 2026-05-01 09:21 | 55.93751 | 37.53468 | 20186 ft | 335 kts | 98° |
| 2026-05-01 09:21 | 55.93256 | 37.57508 | 20676 ft | 334 kts | 92° |
| 2026-05-01 09:21 | 55.92480 | 37.65634 | 22329 ft | 336 kts | 92° |
| 2026-05-01 09:22 | 55.91566 | 37.73887 | 23826 ft | 346 kts | 97° |
| 2026-05-01 09:22 | 55.89319 | 37.81857 | 24765 ft | 370 kts | 111° |
| 2026-05-01 09:23 | 55.88028 | 37.85840 | 25348 ft | 373 kts | 110° |
| 2026-05-01 09:23 | 55.85465 | 37.93897 | 26502 ft | 380 kts | 110° |
| 2026-05-01 09:24 | 55.82867 | 38.02194 | 27566 ft | 388 kts | 110° |
| 2026-05-01 09:24 | 55.81544 | 38.06414 | 28099 ft | 393 kts | 110° |
| 2026-05-01 09:24 | 55.77954 | 38.14031 | 28825 ft | 436 kts | 141° |
| 2026-05-01 09:25 | 55.72063 | 38.18216 | 29009 ft | 471 kts | 154° |
| 2026-05-01 09:25 | 55.65724 | 38.22208 | 29207 ft | 495 kts | 154° |
| 2026-05-01 09:26 | 55.62498 | 38.24270 | 29296 ft | 505 kts | 154° |
| 2026-05-01 09:26 | 55.55786 | 38.28621 | 29622 ft | 520 kts | 154° |
| 2026-05-01 09:26 | 55.52385 | 38.30839 | 29961 ft | 522 kts | 154° |
| 2026-05-01 09:27 | 55.45567 | 38.35282 | 30870 ft | 519 kts | 155° |
| 2026-05-01 09:27 | 55.42203 | 38.37466 | 31500 ft | 513 kts | 155° |
| 2026-05-01 09:27 | 55.38861 | 38.39634 | 31923 ft | 512 kts | 156° |
| 2026-05-01 09:28 | 55.35561 | 38.41776 | 32235 ft | 513 kts | 156° |
| 2026-05-01 09:28 | 55.32208 | 38.43950 | 32538 ft | 514 kts | 156° |
| 2026-05-01 09:28 | 55.28857 | 38.46117 | 32898 ft | 513 kts | 156° |
| 2026-05-01 09:28 | 55.25510 | 38.48276 | 33286 ft | 512 kts | 156° |
| 2026-05-01 09:29 | 55.18838 | 38.52568 | 34004 ft | 510 kts | 157° |
| 2026-05-01 09:29 | 55.15507 | 38.54705 | 34362 ft | 509 kts | 157° |
| 2026-05-01 09:30 | 55.08917 | 38.58921 | 34951 ft | 507 kts | 158° |
| 2026-05-01 09:30 | 55.05598 | 38.61039 | 35123 ft | 509 kts | 158° |
| 2026-05-01 09:30 | 54.98907 | 38.65299 | 35212 ft | 512 kts | 158° |
| 2026-05-01 09:31 | 54.92238 | 38.69525 | 35204 ft | 507 kts | 158° |
| 2026-05-01 09:32 | 54.82324 | 38.75785 | 35216 ft | 504 kts | 158° |
| 2026-05-01 09:32 | 54.72482 | 38.81966 | 35213 ft | 503 kts | 158° |
| 2026-05-01 09:33 | 54.65896 | 38.86085 | 35214 ft | 504 kts | 158° |
| 2026-05-01 09:34 | 54.55982 | 38.92258 | 35222 ft | 506 kts | 159° |
| 2026-05-01 09:34 | 54.46082 | 38.98392 | 35210 ft | 507 kts | 159° |
| 2026-05-01 09:35 | 54.37651 | 39.08315 | 35216 ft | 494 kts | 122° |
| 2026-05-01 09:35 | 54.36037 | 39.13473 | 35228 ft | 489 kts | 109° |
| 2026-05-01 09:36 | 54.34870 | 39.18954 | 35205 ft | 490 kts | 108° |
| 2026-05-01 09:36 | 54.32385 | 39.29879 | 35211 ft | 494 kts | 110° |
| 2026-05-01 09:37 | 54.29753 | 39.40693 | 35213 ft | 496 kts | 111° |
| 2026-05-01 09:37 | 54.25747 | 39.57047 | 35206 ft | 497 kts | 111° |
| 2026-05-01 09:38 | 54.21744 | 39.73389 | 35207 ft | 496 kts | 111° |
| 2026-05-01 09:39 | 54.17748 | 39.89590 | 35201 ft | 495 kts | 111° |
| 2026-05-01 09:39 | 54.15066 | 40.00397 | 35203 ft | 494 kts | 111° |
| 2026-05-01 09:40 | 54.11180 | 40.16642 | 35204 ft | 492 kts | 106° |
| 2026-05-01 09:41 | 54.09262 | 40.27814 | 35204 ft | 492 kts | 104° |
| 2026-05-01 09:41 | 54.06398 | 40.44549 | 35202 ft | 494 kts | 105° |
| 2026-05-01 09:42 | 54.04430 | 40.55764 | 35204 ft | 495 kts | 105° |
| 2026-05-01 09:43 | 54.00443 | 40.78212 | 35198 ft | 497 kts | 106° |
| 2026-05-01 09:43 | 53.98442 | 40.89383 | 35203 ft | 498 kts | 106° |
| 2026-05-01 09:44 | 53.95400 | 41.06285 | 35200 ft | 499 kts | 105° |
| 2026-05-01 09:45 | 53.93528 | 41.17628 | 35197 ft | 499 kts | 103° |
| 2026-05-01 09:45 | 53.90809 | 41.34600 | 35195 ft | 500 kts | 105° |
| 2026-05-01 09:46 | 53.88938 | 41.45971 | 35188 ft | 502 kts | 105° |
| 2026-05-01 09:46 | 53.87047 | 41.57348 | 35189 ft | 502 kts | 105° |
| 2026-05-01 09:47 | 53.85150 | 41.68710 | 35183 ft | 501 kts | 105° |
| 2026-05-01 09:47 | 53.83239 | 41.80054 | 35179 ft | 501 kts | 106° |
| 2026-05-01 09:48 | 53.81306 | 41.91297 | 35185 ft | 501 kts | 107° |
| 2026-05-01 09:48 | 53.79346 | 42.02617 | 35182 ft | 502 kts | 107° |
| 2026-05-01 09:49 | 53.77376 | 42.13953 | 35183 ft | 503 kts | 107° |
| 2026-05-01 09:49 | 53.75396 | 42.25286 | 35181 ft | 503 kts | 107° |
| 2026-05-01 09:50 | 53.73419 | 42.36535 | 35167 ft | 503 kts | 107° |
| 2026-05-01 09:50 | 53.71416 | 42.47856 | 35170 ft | 504 kts | 107° |
| 2026-05-01 09:51 | 53.69396 | 42.59170 | 35161 ft | 501 kts | 109° |
| 2026-05-01 09:51 | 53.67920 | 42.64457 | 35160 ft | 499 kts | 126° |
| 2026-05-01 09:51 | 53.65627 | 42.68814 | 35181 ft | 497 kts | 141° |
| 2026-05-01 09:52 | 53.62778 | 42.72074 | 35156 ft | 495 kts | 156° |
| 2026-05-01 09:52 | 53.59666 | 42.74297 | 35178 ft | 493 kts | 159° |
| 2026-05-01 09:52 | 53.53291 | 42.78654 | 35162 ft | 496 kts | 159° |
| 2026-05-01 09:53 | 53.46918 | 42.83139 | 35159 ft | 498 kts | 159° |
| 2026-05-01 09:53 | 53.40544 | 42.87706 | 35158 ft | 498 kts | 158° |
| 2026-05-01 09:54 | 53.34178 | 42.92267 | 35145 ft | 497 kts | 159° |
| 2026-05-01 09:54 | 53.27827 | 42.96794 | 35150 ft | 496 kts | 159° |
| 2026-05-01 09:55 | 53.21531 | 43.01263 | 35143 ft | 494 kts | 159° |
| 2026-05-01 09:55 | 53.15210 | 43.05737 | 35145 ft | 493 kts | 159° |
| 2026-05-01 09:56 | 53.08915 | 43.10282 | 35146 ft | 493 kts | 158° |
| 2026-05-01 09:56 | 53.02662 | 43.14959 | 35139 ft | 493 kts | 158° |
| 2026-05-01 09:57 | 52.96448 | 43.19600 | 35145 ft | 493 kts | 158° |
| 2026-05-01 09:57 | 52.90178 | 43.24244 | 35139 ft | 494 kts | 158° |
| 2026-05-01 09:58 | 52.83896 | 43.28867 | 35140 ft | 494 kts | 158° |
| 2026-05-01 09:58 | 52.77609 | 43.33479 | 35137 ft | 494 kts | 159° |
| 2026-05-01 09:59 | 52.71361 | 43.38046 | 35127 ft | 494 kts | 159° |
| 2026-05-01 09:59 | 52.65070 | 43.42632 | 35131 ft | 495 kts | 159° |
| 2026-05-01 10:00 | 52.58768 | 43.47210 | 35131 ft | 495 kts | 159° |
| 2026-05-01 10:00 | 52.52465 | 43.51775 | 35130 ft | 495 kts | 159° |
| 2026-05-01 10:01 | 52.46197 | 43.56301 | 35127 ft | 495 kts | 159° |
| 2026-05-01 10:01 | 52.39889 | 43.60841 | 35129 ft | 495 kts | 159° |
| 2026-05-01 10:02 | 52.33578 | 43.65369 | 35127 ft | 495 kts | 159° |
| 2026-05-01 10:02 | 52.27271 | 43.69881 | 35118 ft | 495 kts | 159° |
| 2026-05-01 10:03 | 52.20969 | 43.74374 | 35116 ft | 494 kts | 160° |
| 2026-05-01 10:03 | 52.14711 | 43.78822 | 35121 ft | 494 kts | 160° |
| 2026-05-01 10:04 | 52.08418 | 43.83280 | 35121 ft | 494 kts | 160° |
| 2026-05-01 10:04 | 52.02119 | 43.87730 | 35117 ft | 493 kts | 160° |
| 2026-05-01 10:05 | 51.95827 | 43.92161 | 35125 ft | 493 kts | 160° |
| 2026-05-01 10:05 | 51.89531 | 43.96580 | 35122 ft | 493 kts | 160° |
| 2026-05-01 10:06 | 51.83280 | 44.00955 | 35121 ft | 493 kts | 160° |
| 2026-05-01 10:06 | 51.76991 | 44.05344 | 35112 ft | 492 kts | 160° |
| 2026-05-01 10:07 | 51.70702 | 44.09719 | 35109 ft | 492 kts | 161° |
| 2026-05-01 10:07 | 51.64416 | 44.14078 | 35112 ft | 492 kts | 161° |
| 2026-05-01 10:08 | 51.55027 | 44.20566 | 35105 ft | 492 kts | 161° |
| 2026-05-01 10:09 | 51.48746 | 44.24890 | 35111 ft | 491 kts | 161° |
| 2026-05-01 10:09 | 51.42464 | 44.29200 | 35124 ft | 491 kts | 161° |
| 2026-05-01 10:10 | 51.36186 | 44.33497 | 35124 ft | 491 kts | 161° |
| 2026-05-01 10:10 | 51.26805 | 44.39893 | 35110 ft | 491 kts | 161° |
| 2026-05-01 10:11 | 51.20524 | 44.44134 | 35122 ft | 489 kts | 164° |
| 2026-05-01 10:11 | 51.14000 | 44.46550 | 35146 ft | 479 kts | 179° |
| 2026-05-01 10:12 | 51.10685 | 44.46794 | 35300 ft | 475 kts | 186° |
| 2026-05-01 10:12 | 51.07394 | 44.46483 | 35563 ft | 473 kts | 188° |
| 2026-05-01 10:12 | 51.00838 | 44.45771 | 36032 ft | 473 kts | 188° |
| 2026-05-01 10:13 | 50.97596 | 44.45433 | 36060 ft | 474 kts | 188° |
| 2026-05-01 10:13 | 50.91034 | 44.44787 | 36117 ft | 471 kts | 188° |
| 2026-05-01 10:14 | 50.81242 | 44.43871 | 36123 ft | 469 kts | 188° |
| 2026-05-01 10:14 | 50.74736 | 44.43268 | 36129 ft | 468 kts | 188° |
| 2026-05-01 10:15 | 50.68276 | 44.42667 | 36138 ft | 468 kts | 188° |
| 2026-05-01 10:15 | 50.61778 | 44.42066 | 36134 ft | 468 kts | 188° |
| 2026-05-01 10:16 | 50.55282 | 44.41466 | 36145 ft | 467 kts | 188° |
| 2026-05-01 10:17 | 50.45528 | 44.40567 | 36145 ft | 468 kts | 188° |
| 2026-05-01 10:17 | 50.35809 | 44.39677 | 36139 ft | 469 kts | 188° |
| 2026-05-01 10:18 | 50.26051 | 44.38789 | 36126 ft | 467 kts | 188° |
| 2026-05-01 10:19 | 50.19561 | 44.38199 | 36131 ft | 467 kts | 188° |
| 2026-05-01 10:19 | 50.13077 | 44.37611 | 36132 ft | 466 kts | 188° |
| 2026-05-01 10:20 | 50.03410 | 44.36738 | 36136 ft | 466 kts | 188° |
| 2026-05-01 10:20 | 49.96944 | 44.36159 | 36128 ft | 465 kts | 189° |
| 2026-05-01 10:21 | 49.87264 | 44.35290 | 36131 ft | 464 kts | 189° |
| 2026-05-01 10:22 | 49.77599 | 44.34426 | 36138 ft | 464 kts | 189° |
| 2026-05-01 10:23 | 49.67977 | 44.33570 | 36142 ft | 464 kts | 189° |
| 2026-05-01 10:23 | 49.58273 | 44.33352 | 36137 ft | 473 kts | 178° |
| 2026-05-01 10:24 | 49.51831 | 44.35746 | 35945 ft | 482 kts | 165° |
| 2026-05-01 10:24 | 49.45596 | 44.39736 | 35254 ft | 488 kts | 163° |
| 2026-05-01 10:25 | 49.39415 | 44.43788 | 35135 ft | 486 kts | 164° |
| 2026-05-01 10:25 | 49.33164 | 44.47796 | 35150 ft | 488 kts | 165° |
| 2026-05-01 10:26 | 49.26887 | 44.51763 | 35140 ft | 488 kts | 165° |
| 2026-05-01 10:27 | 49.14358 | 44.59645 | 35122 ft | 488 kts | 166° |
| 2026-05-01 10:28 | 49.04953 | 44.65537 | 35133 ft | 486 kts | 166° |
| 2026-05-01 10:28 | 48.95573 | 44.71391 | 35145 ft | 485 kts | 166° |
| 2026-05-01 10:29 | 48.86259 | 44.77271 | 35130 ft | 489 kts | 162° |
| 2026-05-01 10:30 | 48.80362 | 44.82671 | 35145 ft | 504 kts | 150° |
| 2026-05-01 10:30 | 48.74855 | 44.89293 | 35154 ft | 506 kts | 149° |
| 2026-05-01 10:31 | 48.63829 | 45.02463 | 35153 ft | 507 kts | 150° |
| 2026-05-01 10:32 | 48.55484 | 45.12271 | 35150 ft | 507 kts | 150° |
| 2026-05-01 10:33 | 48.44337 | 45.25323 | 35168 ft | 508 kts | 150° |
| 2026-05-01 10:33 | 48.38613 | 45.31299 | 35163 ft | 497 kts | 159° |
| 2026-05-01 10:34 | 48.35546 | 45.33621 | 35160 ft | 492 kts | 163° |
| 2026-05-01 10:34 | 48.29373 | 45.38043 | 35144 ft | 492 kts | 162° |
| 2026-05-01 10:35 | 48.20133 | 45.44753 | 35146 ft | 492 kts | 162° |
| 2026-05-01 10:35 | 48.13967 | 45.49262 | 35153 ft | 493 kts | 162° |
| 2026-05-01 10:36 | 48.04772 | 45.55970 | 35151 ft | 491 kts | 162° |
| 2026-05-01 10:37 | 47.98640 | 45.60425 | 35153 ft | 490 kts | 162° |
| 2026-05-01 10:37 | 47.89440 | 45.67084 | 35155 ft | 488 kts | 162° |
| 2026-05-01 10:38 | 47.83349 | 45.71481 | 35154 ft | 485 kts | 162° |
| 2026-05-01 10:38 | 47.77337 | 45.75809 | 35159 ft | 482 kts | 162° |
| 2026-05-01 10:39 | 47.71312 | 45.80133 | 35155 ft | 480 kts | 162° |
| 2026-05-01 10:39 | 47.65309 | 45.84431 | 35146 ft | 478 kts | 163° |
| 2026-05-01 10:40 | 47.59320 | 45.88708 | 35159 ft | 478 kts | 163° |
| 2026-05-01 10:40 | 47.53364 | 45.92948 | 35163 ft | 479 kts | 163° |
| 2026-05-01 10:41 | 47.47458 | 45.97149 | 35147 ft | 474 kts | 163° |
| 2026-05-01 10:42 | 47.38541 | 46.03461 | 35173 ft | 481 kts | 163° |
| 2026-05-01 10:42 | 47.32467 | 46.07751 | 35163 ft | 484 kts | 163° |
| 2026-05-01 10:43 | 47.26435 | 46.12018 | 35149 ft | 484 kts | 163° |
| 2026-05-01 10:43 | 47.20377 | 46.16289 | 35136 ft | 481 kts | 163° |
| 2026-05-01 10:44 | 47.14341 | 46.20531 | 35151 ft | 481 kts | 163° |
| 2026-05-01 10:44 | 47.08342 | 46.24884 | 35148 ft | 487 kts | 157° |
| 2026-05-01 10:44 | 47.05581 | 46.27864 | 35168 ft | 500 kts | 146° |
| 2026-05-01 10:45 | 47.03159 | 46.31502 | 35164 ft | 513 kts | 137° |
| 2026-05-01 10:45 | 47.01085 | 46.35834 | 35322 ft | 523 kts | 129° |
| 2026-05-01 10:45 | 46.99169 | 46.40370 | 35633 ft | 522 kts | 128° |
| 2026-05-01 10:45 | 46.97283 | 46.44899 | 36018 ft | 520 kts | 128° |
| 2026-05-01 10:46 | 46.95392 | 46.49406 | 36196 ft | 520 kts | 128° |
| 2026-05-01 10:46 | 46.91541 | 46.58375 | 36151 ft | 518 kts | 129° |
| 2026-05-01 10:47 | 46.87680 | 46.67210 | 36162 ft | 514 kts | 129° |
| 2026-05-01 10:47 | 46.83840 | 46.75943 | 36159 ft | 515 kts | 129° |
| 2026-05-01 10:48 | 46.79968 | 46.84739 | 36158 ft | 515 kts | 129° |
| 2026-05-01 10:48 | 46.76089 | 46.93535 | 36122 ft | 516 kts | 129° |
| 2026-05-01 10:49 | 46.72204 | 47.02322 | 36147 ft | 516 kts | 129° |
| 2026-05-01 10:49 | 46.68313 | 47.11114 | 36154 ft | 517 kts | 129° |
| 2026-05-01 10:50 | 46.64485 | 47.19901 | 36150 ft | 518 kts | 129° |
| 2026-05-01 10:50 | 46.60633 | 47.28766 | 36140 ft | 518 kts | 128° |
| 2026-05-01 10:51 | 46.56770 | 47.37606 | 36143 ft | 518 kts | 129° |
| 2026-05-01 10:51 | 46.52891 | 47.46437 | 36145 ft | 519 kts | 129° |
| 2026-05-01 10:52 | 46.49029 | 47.55201 | 36118 ft | 519 kts | 129° |
| 2026-05-01 10:52 | 46.45134 | 47.64016 | 36128 ft | 519 kts | 129° |
| 2026-05-01 10:53 | 46.41232 | 47.72819 | 36140 ft | 519 kts | 129° |
| 2026-05-01 10:53 | 46.37321 | 47.81614 | 36134 ft | 519 kts | 129° |
| 2026-05-01 10:54 | 46.33432 | 47.90338 | 36128 ft | 519 kts | 129° |
| 2026-05-01 10:54 | 46.29761 | 47.99378 | 36129 ft | 527 kts | 120° |
| 2026-05-01 10:55 | 46.27217 | 48.09376 | 36129 ft | 534 kts | 108° |
| 2026-05-01 10:55 | 46.25649 | 48.19898 | 36107 ft | 536 kts | 105° |
| 2026-05-01 10:56 | 46.24137 | 48.30355 | 36128 ft | 535 kts | 106° |
| 2026-05-01 10:56 | 46.22536 | 48.40843 | 36127 ft | 534 kts | 106° |
| 2026-05-01 10:57 | 46.20802 | 48.51236 | 36115 ft | 526 kts | 116° |
| 2026-05-01 10:57 | 46.19113 | 48.55814 | 36129 ft | 511 kts | 134° |
| 2026-05-01 10:57 | 46.16697 | 48.59445 | 36120 ft | 497 kts | 148° |
| 2026-05-01 10:57 | 46.13885 | 48.62251 | 36105 ft | 488 kts | 159° |
| 2026-05-01 10:58 | 46.10834 | 48.64180 | 35878 ft | 470 kts | 172° |
| 2026-05-01 10:58 | 46.07716 | 48.65374 | 35391 ft | 472 kts | 173° |
| 2026-05-01 10:58 | 46.04536 | 48.66565 | 35228 ft | 473 kts | 173° |
| 2026-05-01 10:59 | 45.98144 | 48.69014 | 35142 ft | 477 kts | 173° |
| 2026-05-01 10:59 | 45.91728 | 48.71552 | 35133 ft | 479 kts | 172° |
| 2026-05-01 11:00 | 45.85306 | 48.74129 | 35123 ft | 478 kts | 172° |
| 2026-05-01 11:00 | 45.78947 | 48.76679 | 35132 ft | 477 kts | 172° |
| 2026-05-01 11:01 | 45.72544 | 48.79236 | 35102 ft | 477 kts | 172° |
| 2026-05-01 11:01 | 45.66156 | 48.81779 | 35128 ft | 477 kts | 172° |
| 2026-05-01 11:02 | 45.59764 | 48.84315 | 35132 ft | 477 kts | 172° |
| 2026-05-01 11:02 | 45.53367 | 48.86848 | 35132 ft | 477 kts | 172° |
| 2026-05-01 11:03 | 45.47003 | 48.89361 | 35110 ft | 478 kts | 171° |
| 2026-05-01 11:03 | 45.40595 | 48.91887 | 35125 ft | 478 kts | 171° |
| 2026-05-01 11:04 | 45.34180 | 48.94410 | 35129 ft | 478 kts | 171° |
| 2026-05-01 11:04 | 45.27761 | 48.96928 | 35109 ft | 479 kts | 171° |
| 2026-05-01 11:05 | 45.21343 | 48.99440 | 35119 ft | 479 kts | 171° |
| 2026-05-01 11:05 | 45.14966 | 49.01931 | 35129 ft | 479 kts | 171° |
| 2026-05-01 11:06 | 45.08544 | 49.04432 | 35117 ft | 479 kts | 171° |
| 2026-05-01 11:06 | 45.02129 | 49.06926 | 35121 ft | 478 kts | 171° |
| 2026-05-01 11:07 | 44.92516 | 49.10651 | 35125 ft | 477 kts | 171° |
| 2026-05-01 11:07 | 44.86158 | 49.13107 | 35126 ft | 477 kts | 171° |
| 2026-05-01 11:08 | 44.79757 | 49.15574 | 35122 ft | 477 kts | 171° |
| 2026-05-01 11:09 | 44.70159 | 49.19263 | 35125 ft | 477 kts | 171° |
| 2026-05-01 11:09 | 44.63761 | 49.21715 | 35094 ft | 476 kts | 170° |
| 2026-05-01 11:10 | 44.54217 | 49.25363 | 35112 ft | 476 kts | 170° |
| 2026-05-01 11:10 | 44.47828 | 49.27797 | 35118 ft | 476 kts | 170° |
| 2026-05-01 11:11 | 44.41439 | 49.30226 | 35106 ft | 476 kts | 170° |
| 2026-05-01 11:11 | 44.35046 | 49.32651 | 35113 ft | 476 kts | 170° |
| 2026-05-01 11:12 | 44.28704 | 49.35052 | 35115 ft | 476 kts | 170° |
| 2026-05-01 11:12 | 44.22315 | 49.37465 | 35114 ft | 475 kts | 170° |
| 2026-05-01 11:13 | 44.17011 | 49.39464 | 35109 ft | 475 kts | 170° |
| 2026-05-01 11:13 | 44.10629 | 49.41864 | 35118 ft | 475 kts | 170° |
| 2026-05-01 11:14 | 44.03212 | 49.44647 | 35114 ft | 475 kts | 170° |
| 2026-05-01 11:14 | 43.96831 | 49.47036 | 35105 ft | 475 kts | 170° |
| 2026-05-01 11:15 | 43.91518 | 49.48180 | 35105 ft | 456 kts | 192° |
| 2026-05-01 11:15 | 43.88488 | 49.47127 | 35128 ft | 446 kts | 206° |
| 2026-05-01 11:15 | 43.85691 | 49.45279 | 35145 ft | 446 kts | 213° |
| 2026-05-01 11:16 | 43.83110 | 49.42913 | 35302 ft | 444 kts | 223° |
| 2026-05-01 11:16 | 43.81027 | 49.39828 | 35517 ft | 438 kts | 232° |
| 2026-05-01 11:16 | 43.79120 | 49.36543 | 35778 ft | 437 kts | 233° |
| 2026-05-01 11:16 | 43.76627 | 49.32169 | 36032 ft | 438 kts | 233° |
| 2026-05-01 11:17 | 43.73438 | 49.26637 | 36103 ft | 438 kts | 232° |
| 2026-05-01 11:17 | 43.69635 | 49.20169 | 36094 ft | 435 kts | 232° |
| 2026-05-01 11:18 | 43.65796 | 49.13719 | 36099 ft | 434 kts | 232° |
| 2026-05-01 11:18 | 43.61959 | 49.07297 | 36090 ft | 433 kts | 232° |
| 2026-05-01 11:19 | 43.58118 | 49.00882 | 36094 ft | 434 kts | 232° |
| 2026-05-01 11:19 | 43.54295 | 48.94509 | 36088 ft | 435 kts | 232° |
| 2026-05-01 11:20 | 43.50433 | 48.88083 | 36088 ft | 436 kts | 232° |
| 2026-05-01 11:20 | 43.46557 | 48.81648 | 36083 ft | 437 kts | 231° |
| 2026-05-01 11:21 | 43.42671 | 48.75211 | 36077 ft | 438 kts | 231° |
| 2026-05-01 11:21 | 43.38775 | 48.68773 | 36077 ft | 438 kts | 231° |
| 2026-05-01 11:22 | 43.34901 | 48.62384 | 36064 ft | 438 kts | 231° |
| 2026-05-01 11:22 | 43.30997 | 48.55958 | 36065 ft | 438 kts | 231° |
| 2026-05-01 11:23 | 43.27089 | 48.49539 | 36065 ft | 438 kts | 231° |
| 2026-05-01 11:23 | 43.23177 | 48.43129 | 36060 ft | 438 kts | 231° |
| 2026-05-01 11:24 | 43.19380 | 48.36661 | 36049 ft | 438 kts | 233° |
| 2026-05-01 11:25 | 43.13742 | 48.26788 | 36054 ft | 439 kts | 233° |
| 2026-05-01 11:25 | 43.08069 | 48.16936 | 36047 ft | 440 kts | 232° |
| 2026-05-01 11:26 | 43.02384 | 48.07133 | 36043 ft | 441 kts | 232° |
| 2026-05-01 11:27 | 42.98569 | 48.00573 | 36032 ft | 441 kts | 232° |
| 2026-05-01 11:27 | 42.94750 | 47.94020 | 36033 ft | 442 kts | 232° |
| 2026-05-01 11:28 | 42.90914 | 47.87454 | 36025 ft | 442 kts | 232° |
| 2026-05-01 11:28 | 42.87104 | 47.80945 | 36022 ft | 442 kts | 232° |
| 2026-05-01 11:29 | 42.81331 | 47.71111 | 36023 ft | 443 kts | 232° |
| 2026-05-01 11:30 | 42.75547 | 47.61291 | 36018 ft | 443 kts | 232° |
| 2026-05-01 11:30 | 42.71716 | 47.54804 | 36017 ft | 443 kts | 232° |
| 2026-05-01 11:31 | 42.67859 | 47.48288 | 36015 ft | 442 kts | 232° |
| 2026-05-01 11:31 | 42.64005 | 47.41791 | 35999 ft | 441 kts | 232° |
| 2026-05-01 11:32 | 42.60158 | 47.35318 | 35983 ft | 439 kts | 232° |
| 2026-05-01 11:32 | 42.56345 | 47.28918 | 35986 ft | 439 kts | 232° |
| 2026-05-01 11:33 | 42.52503 | 47.22486 | 35970 ft | 439 kts | 232° |
| 2026-05-01 11:33 | 42.48655 | 47.16055 | 35967 ft | 439 kts | 232° |
| 2026-05-01 11:34 | 42.44802 | 47.09628 | 35960 ft | 440 kts | 231° |
| 2026-05-01 11:34 | 42.40936 | 47.03194 | 35963 ft | 441 kts | 231° |
| 2026-05-01 11:35 | 42.37090 | 46.96808 | 35973 ft | 441 kts | 231° |
| 2026-05-01 11:35 | 42.33213 | 46.90382 | 35982 ft | 441 kts | 231° |
| 2026-05-01 11:36 | 42.29333 | 46.83972 | 35973 ft | 440 kts | 231° |
| 2026-05-01 11:36 | 42.25461 | 46.77583 | 36001 ft | 438 kts | 231° |
| 2026-05-01 11:37 | 42.21638 | 46.71288 | 36035 ft | 436 kts | 231° |
| 2026-05-01 11:37 | 42.17796 | 46.64977 | 36074 ft | 435 kts | 231° |
| 2026-05-01 11:38 | 42.13962 | 46.58693 | 36077 ft | 433 kts | 231° |
| 2026-05-01 11:38 | 42.10125 | 46.52411 | 36098 ft | 438 kts | 231° |
| 2026-05-01 11:39 | 42.06242 | 46.46073 | 36128 ft | 444 kts | 231° |
| 2026-05-01 11:39 | 42.02295 | 46.39641 | 36122 ft | 446 kts | 231° |
| 2026-05-01 11:40 | 41.98371 | 46.33192 | 36116 ft | 445 kts | 234° |
| 2026-05-01 11:40 | 41.95477 | 46.25883 | 36128 ft | 444 kts | 248° |
| 2026-05-01 11:41 | 41.93843 | 46.17946 | 36127 ft | 445 kts | 257° |
| 2026-05-01 11:41 | 41.92701 | 46.09783 | 36130 ft | 444 kts | 258° |
| 2026-05-01 11:42 | 41.91560 | 46.01634 | 36121 ft | 444 kts | 257° |
| 2026-05-01 11:42 | 41.90382 | 45.93481 | 36112 ft | 445 kts | 257° |
| 2026-05-01 11:43 | 41.89192 | 45.85392 | 36111 ft | 445 kts | 257° |
| 2026-05-01 11:43 | 41.87986 | 45.77264 | 36110 ft | 445 kts | 257° |
| 2026-05-01 11:44 | 41.86163 | 45.65052 | 36094 ft | 444 kts | 257° |
| 2026-05-01 11:44 | 41.84944 | 45.56932 | 36093 ft | 444 kts | 257° |
| 2026-05-01 11:45 | 41.83718 | 45.48809 | 36098 ft | 445 kts | 257° |
| 2026-05-01 11:45 | 41.82495 | 45.40733 | 36093 ft | 445 kts | 257° |
| 2026-05-01 11:46 | 41.81255 | 45.32595 | 36094 ft | 446 kts | 257° |
| 2026-05-01 11:46 | 41.80007 | 45.24448 | 36073 ft | 447 kts | 257° |
| 2026-05-01 11:47 | 41.78752 | 45.16293 | 36082 ft | 448 kts | 257° |
| 2026-05-01 11:47 | 41.77496 | 45.08171 | 36084 ft | 448 kts | 257° |
| 2026-05-01 11:48 | 41.76224 | 44.99989 | 36075 ft | 449 kts | 256° |
| 2026-05-01 11:48 | 41.74945 | 44.91802 | 36095 ft | 449 kts | 256° |
| 2026-05-01 11:49 | 41.73662 | 44.83629 | 36075 ft | 448 kts | 256° |
| 2026-05-01 11:49 | 41.72386 | 44.75537 | 36071 ft | 447 kts | 256° |
| 2026-05-01 11:50 | 41.71099 | 44.67419 | 36066 ft | 445 kts | 256° |
| 2026-05-01 11:50 | 41.69811 | 44.59333 | 36064 ft | 444 kts | 256° |
| 2026-05-01 11:51 | 41.68521 | 44.51273 | 36072 ft | 443 kts | 256° |
| 2026-05-01 11:51 | 41.67236 | 44.43282 | 36073 ft | 442 kts | 256° |
| 2026-05-01 11:52 | 41.65937 | 44.35245 | 36055 ft | 441 kts | 256° |
| 2026-05-01 11:52 | 41.64639 | 44.27250 | 36046 ft | 440 kts | 256° |
| 2026-05-01 11:53 | 41.63339 | 44.19278 | 36061 ft | 438 kts | 256° |
| 2026-05-01 11:53 | 41.62044 | 44.11370 | 36042 ft | 439 kts | 256° |
| 2026-05-01 11:54 | 41.60732 | 44.03401 | 36051 ft | 439 kts | 256° |
| 2026-05-01 11:54 | 41.59414 | 43.95429 | 36049 ft | 440 kts | 256° |
| 2026-05-01 11:55 | 41.58088 | 43.87447 | 36027 ft | 441 kts | 256° |
| 2026-05-01 11:55 | 41.56763 | 43.79510 | 36013 ft | 442 kts | 256° |
| 2026-05-01 11:56 | 41.55420 | 43.71493 | 36030 ft | 443 kts | 256° |
| 2026-05-01 11:56 | 41.54067 | 43.63465 | 36027 ft | 445 kts | 256° |
| 2026-05-01 11:57 | 41.52702 | 43.55393 | 35995 ft | 446 kts | 256° |
| 2026-05-01 11:57 | 41.51339 | 43.47370 | 35984 ft | 446 kts | 256° |
| 2026-05-01 11:58 | 41.49961 | 43.39298 | 35977 ft | 446 kts | 255° |
| 2026-05-01 11:59 | 41.47885 | 43.27207 | 35969 ft | 446 kts | 255° |
| 2026-05-01 11:59 | 41.46507 | 43.19214 | 35959 ft | 445 kts | 255° |
| 2026-05-01 12:00 | 41.44422 | 43.07194 | 35954 ft | 443 kts | 255° |
| 2026-05-01 12:01 | 41.42432 | 42.95151 | 35972 ft | 444 kts | 258° |
| 2026-05-01 12:01 | 41.41460 | 42.87073 | 35963 ft | 445 kts | 259° |
| 2026-05-01 12:02 | 41.40491 | 42.78923 | 35962 ft | 446 kts | 259° |
| 2026-05-01 12:02 | 41.39504 | 42.70773 | 35966 ft | 447 kts | 259° |
| 2026-05-01 12:03 | 41.38500 | 42.62594 | 35972 ft | 447 kts | 258° |
| 2026-05-01 12:03 | 41.37496 | 42.54483 | 35962 ft | 446 kts | 258° |
| 2026-05-01 12:04 | 41.36480 | 42.46323 | 35962 ft | 447 kts | 258° |
| 2026-05-01 12:04 | 41.35459 | 42.38165 | 35958 ft | 447 kts | 258° |
| 2026-05-01 12:05 | 41.34434 | 42.30019 | 35971 ft | 446 kts | 258° |
| 2026-05-01 12:05 | 41.32897 | 42.17894 | 35971 ft | 445 kts | 258° |
| 2026-05-01 12:06 | 41.31861 | 42.09785 | 35937 ft | 444 kts | 258° |
| 2026-05-01 12:06 | 41.30821 | 42.01684 | 35966 ft | 445 kts | 258° |
| 2026-05-01 12:07 | 41.29771 | 41.93571 | 35941 ft | 445 kts | 258° |
| 2026-05-01 12:07 | 41.28708 | 41.85530 | 35987 ft | 445 kts | 258° |
| 2026-05-01 12:08 | 41.27630 | 41.77440 | 35965 ft | 444 kts | 258° |
| 2026-05-01 12:08 | 41.26553 | 41.69373 | 35976 ft | 442 kts | 258° |
| 2026-05-01 12:09 | 41.25475 | 41.61335 | 35960 ft | 442 kts | 258° |
| 2026-05-01 12:09 | 41.24397 | 41.53352 | 35960 ft | 443 kts | 258° |
| 2026-05-01 12:10 | 41.22757 | 41.41265 | 35982 ft | 442 kts | 258° |
| 2026-05-01 12:11 | 41.21111 | 41.29252 | 35969 ft | 440 kts | 257° |
| 2026-05-01 12:11 | 41.20017 | 41.21323 | 35993 ft | 439 kts | 258° |
| 2026-05-01 12:12 | 41.18913 | 41.13356 | 35999 ft | 439 kts | 258° |
| 2026-05-01 12:12 | 41.17803 | 41.05385 | 36003 ft | 439 kts | 258° |
| 2026-05-01 12:13 | 41.16686 | 40.97412 | 36015 ft | 440 kts | 257° |
| 2026-05-01 12:13 | 41.15570 | 40.89491 | 36032 ft | 440 kts | 257° |
| 2026-05-01 12:14 | 41.14440 | 40.81501 | 36013 ft | 440 kts | 257° |
| 2026-05-01 12:14 | 41.13304 | 40.73515 | 36013 ft | 441 kts | 257° |
| 2026-05-01 12:15 | 41.12159 | 40.65513 | 36021 ft | 442 kts | 257° |
| 2026-05-01 12:15 | 41.11017 | 40.57569 | 36010 ft | 442 kts | 257° |
| 2026-05-01 12:16 | 41.09861 | 40.49572 | 36001 ft | 441 kts | 257° |
| 2026-05-01 12:16 | 41.08703 | 40.41591 | 35998 ft | 441 kts | 257° |
| 2026-05-01 12:17 | 41.07540 | 40.33630 | 35997 ft | 440 kts | 257° |
| 2026-05-01 12:17 | 41.06373 | 40.25675 | 35997 ft | 440 kts | 257° |
| 2026-05-01 12:18 | 41.05209 | 40.17778 | 36000 ft | 439 kts | 257° |
| 2026-05-01 12:18 | 41.04033 | 40.09838 | 36009 ft | 439 kts | 257° |
| 2026-05-01 12:19 | 41.02850 | 40.01895 | 35989 ft | 439 kts | 257° |
| 2026-05-01 12:19 | 41.01664 | 39.93968 | 35995 ft | 439 kts | 257° |
| 2026-05-01 12:20 | 41.00480 | 39.86089 | 35997 ft | 439 kts | 257° |
| 2026-05-01 12:20 | 40.98798 | 39.78349 | 35997 ft | 437 kts | 248° |
| 2026-05-01 12:21 | 40.96213 | 39.71086 | 35998 ft | 436 kts | 242° |
| 2026-05-01 12:21 | 40.93404 | 39.64036 | 35993 ft | 437 kts | 242° |
| 2026-05-01 12:22 | 40.90577 | 39.56919 | 35991 ft | 437 kts | 242° |
| 2026-05-01 12:22 | 40.87764 | 39.49808 | 35983 ft | 436 kts | 242° |
| 2026-05-01 12:23 | 40.84947 | 39.42696 | 35977 ft | 437 kts | 242° |
| 2026-05-01 12:23 | 40.82129 | 39.35592 | 35972 ft | 437 kts | 242° |
| 2026-05-01 12:24 | 40.79326 | 39.28546 | 35960 ft | 437 kts | 242° |
| 2026-05-01 12:24 | 40.76500 | 39.21457 | 35959 ft | 436 kts | 242° |
| 2026-05-01 12:25 | 40.72257 | 39.10846 | 35962 ft | 437 kts | 241° |
| 2026-05-01 12:26 | 40.69434 | 39.03810 | 35962 ft | 437 kts | 241° |
| 2026-05-01 12:26 | 40.65166 | 38.93194 | 35959 ft | 436 kts | 241° |
| 2026-05-01 12:27 | 40.60885 | 38.82619 | 35957 ft | 437 kts | 241° |
| 2026-05-01 12:28 | 40.56595 | 38.72085 | 35954 ft | 438 kts | 241° |
| 2026-05-01 12:29 | 40.52271 | 38.61486 | 35931 ft | 439 kts | 241° |
| 2026-05-01 12:29 | 40.47871 | 38.50932 | 35918 ft | 439 kts | 240° |
| 2026-05-01 12:30 | 40.43394 | 38.40502 | 35897 ft | 439 kts | 240° |
| 2026-05-01 12:31 | 40.40407 | 38.33514 | 35889 ft | 438 kts | 240° |
| 2026-05-01 12:31 | 40.37430 | 38.26553 | 35878 ft | 437 kts | 240° |
| 2026-05-01 12:32 | 40.34594 | 38.19481 | 35864 ft | 438 kts | 241° |
| 2026-05-01 12:32 | 40.30302 | 38.09001 | 35847 ft | 437 kts | 240° |
| 2026-05-01 12:33 | 40.27332 | 38.02049 | 35843 ft | 438 kts | 240° |
| 2026-05-01 12:33 | 40.24357 | 37.95083 | 35847 ft | 439 kts | 240° |
| 2026-05-01 12:34 | 40.21385 | 37.88107 | 35838 ft | 439 kts | 240° |
| 2026-05-01 12:34 | 40.18434 | 37.81182 | 35845 ft | 439 kts | 240° |
| 2026-05-01 12:35 | 40.15450 | 37.74203 | 35867 ft | 440 kts | 240° |
| 2026-05-01 12:35 | 40.12457 | 37.67214 | 35830 ft | 441 kts | 240° |
| 2026-05-01 12:36 | 40.09458 | 37.60226 | 35834 ft | 441 kts | 239° |
| 2026-05-01 12:36 | 40.06457 | 37.53236 | 35823 ft | 441 kts | 240° |
| 2026-05-01 12:37 | 40.03486 | 37.46283 | 35826 ft | 442 kts | 240° |
| 2026-05-01 12:37 | 40.00493 | 37.39284 | 35813 ft | 441 kts | 240° |
| 2026-05-01 12:38 | 39.97495 | 37.32292 | 35813 ft | 442 kts | 240° |
| 2026-05-01 12:38 | 39.94490 | 37.25307 | 35849 ft | 442 kts | 239° |
| 2026-05-01 12:39 | 39.91502 | 37.18372 | 35873 ft | 441 kts | 240° |
| 2026-05-01 12:39 | 39.88493 | 37.11408 | 35912 ft | 442 kts | 239° |
| 2026-05-01 12:40 | 39.85477 | 37.04440 | 35953 ft | 442 kts | 239° |
| 2026-05-01 12:40 | 39.82451 | 36.97465 | 35967 ft | 443 kts | 239° |
| 2026-05-01 12:41 | 39.79915 | 36.90245 | 35988 ft | 444 kts | 252° |
| 2026-05-01 12:41 | 39.78773 | 36.82334 | 35974 ft | 449 kts | 264° |
| 2026-05-01 12:42 | 39.78721 | 36.74210 | 35943 ft | 450 kts | 267° |
| 2026-05-01 12:42 | 39.78735 | 36.66080 | 35904 ft | 449 kts | 267° |
| 2026-05-01 12:43 | 39.78701 | 36.58018 | 35875 ft | 449 kts | 266° |
| 2026-05-01 12:43 | 39.78638 | 36.49899 | 35823 ft | 449 kts | 266° |
| 2026-05-01 12:44 | 39.78566 | 36.41781 | 35836 ft | 449 kts | 266° |
| 2026-05-01 12:45 | 39.78412 | 36.25610 | 35835 ft | 448 kts | 266° |
| 2026-05-01 12:45 | 39.77914 | 36.17556 | 36022 ft | 448 kts | 262° |
| 2026-05-01 12:46 | 39.77591 | 36.13539 | 36409 ft | 445 kts | 262° |
| 2026-05-01 12:46 | 39.77271 | 36.09550 | 36801 ft | 443 kts | 262° |
| 2026-05-01 12:46 | 39.76956 | 36.05574 | 37180 ft | 441 kts | 262° |
| 2026-05-01 12:46 | 39.76643 | 36.01613 | 37519 ft | 440 kts | 262° |
| 2026-05-01 12:47 | 39.76332 | 35.97661 | 37778 ft | 440 kts | 262° |
| 2026-05-01 12:47 | 39.76020 | 35.93700 | 37807 ft | 441 kts | 262° |
| 2026-05-01 12:47 | 39.75403 | 35.85876 | 37849 ft | 435 kts | 262° |
| 2026-05-01 12:48 | 39.74790 | 35.78163 | 37841 ft | 425 kts | 262° |
| 2026-05-01 12:48 | 39.74175 | 35.70529 | 37856 ft | 424 kts | 262° |
| 2026-05-01 12:49 | 39.73558 | 35.62908 | 37855 ft | 424 kts | 262° |
| 2026-05-01 12:49 | 39.72939 | 35.55344 | 37872 ft | 424 kts | 262° |
| 2026-05-01 12:50 | 39.72301 | 35.47733 | 37850 ft | 424 kts | 262° |
| 2026-05-01 12:50 | 39.71657 | 35.40114 | 37858 ft | 425 kts | 262° |
| 2026-05-01 12:51 | 39.71007 | 35.32485 | 37861 ft | 425 kts | 262° |
| 2026-05-01 12:52 | 39.70029 | 35.21084 | 37869 ft | 426 kts | 262° |
| 2026-05-01 12:52 | 39.69034 | 35.09619 | 37873 ft | 426 kts | 262° |
| 2026-05-01 12:53 | 39.68026 | 34.98142 | 37872 ft | 427 kts | 262° |
| 2026-05-01 12:54 | 39.67352 | 34.90540 | 37874 ft | 427 kts | 262° |
| 2026-05-01 12:54 | 39.66326 | 34.79073 | 37874 ft | 426 kts | 262° |
| 2026-05-01 12:55 | 39.65289 | 34.67615 | 37893 ft | 426 kts | 262° |
| 2026-05-01 12:56 | 39.64596 | 34.60027 | 37887 ft | 426 kts | 262° |
| 2026-05-01 12:56 | 39.63894 | 34.52390 | 37882 ft | 426 kts | 262° |
| 2026-05-01 12:57 | 39.63189 | 34.44775 | 37886 ft | 425 kts | 262° |
| 2026-05-01 12:57 | 39.62126 | 34.33378 | 37898 ft | 424 kts | 262° |
| 2026-05-01 12:58 | 39.61419 | 34.25848 | 37894 ft | 423 kts | 262° |
| 2026-05-01 12:59 | 39.60345 | 34.14510 | 37886 ft | 422 kts | 262° |
| 2026-05-01 12:59 | 39.59263 | 34.03188 | 37911 ft | 422 kts | 262° |
| 2026-05-01 13:00 | 39.58175 | 33.91937 | 37936 ft | 421 kts | 262° |
| 2026-05-01 13:01 | 39.57076 | 33.80669 | 37923 ft | 419 kts | 262° |
| 2026-05-01 13:02 | 39.55972 | 33.69463 | 37938 ft | 417 kts | 261° |
| 2026-05-01 13:07 | 39.47610 | 32.87750 | 38006 ft | 421 kts | 261° |
| 2026-05-01 13:08 | 39.46819 | 32.80239 | 37984 ft | 421 kts | 261° |
| 2026-05-01 13:08 | 39.46025 | 32.72728 | 38005 ft | 421 kts | 261° |
| 2026-05-01 13:09 | 39.45232 | 32.65273 | 38010 ft | 421 kts | 261° |
| 2026-05-01 13:09 | 39.44431 | 32.57778 | 38027 ft | 421 kts | 261° |
| 2026-05-01 13:10 | 39.43350 | 32.50355 | 38033 ft | 419 kts | 254° |
| 2026-05-01 13:10 | 39.41392 | 32.43268 | 38030 ft | 419 kts | 249° |
| 2026-05-01 13:11 | 39.38422 | 32.36926 | 38033 ft | 420 kts | 230° |
| 2026-05-01 13:11 | 39.33872 | 32.32172 | 37678 ft | 427 kts | 212° |
| 2026-05-01 13:11 | 39.31214 | 32.30416 | 37227 ft | 431 kts | 211° |
| 2026-05-01 13:12 | 39.28523 | 32.28716 | 37055 ft | 431 kts | 210° |
| 2026-05-01 13:12 | 39.23103 | 32.25314 | 37036 ft | 435 kts | 211° |
| 2026-05-01 13:13 | 39.17695 | 32.21855 | 37039 ft | 437 kts | 211° |
| 2026-05-01 13:13 | 39.12262 | 32.18346 | 37030 ft | 437 kts | 211° |
| 2026-05-01 13:14 | 39.06832 | 32.14830 | 37016 ft | 437 kts | 211° |
| 2026-05-01 13:14 | 39.01404 | 32.11317 | 37010 ft | 436 kts | 211° |
| 2026-05-01 13:15 | 38.95992 | 32.07823 | 37026 ft | 435 kts | 211° |
| 2026-05-01 13:15 | 38.90617 | 32.04357 | 37028 ft | 435 kts | 212° |
| 2026-05-01 13:16 | 38.85211 | 32.00880 | 37025 ft | 434 kts | 212° |
| 2026-05-01 13:16 | 38.79820 | 31.97419 | 37024 ft | 432 kts | 212° |
| 2026-05-01 13:17 | 38.69108 | 31.90556 | 37012 ft | 432 kts | 212° |
| 2026-05-01 13:18 | 38.61020 | 31.85388 | 37010 ft | 434 kts | 212° |
| 2026-05-01 13:18 | 38.55609 | 31.81940 | 36992 ft | 435 kts | 212° |
| 2026-05-01 13:19 | 38.50174 | 31.78482 | 37005 ft | 437 kts | 212° |
| 2026-05-01 13:20 | 38.42029 | 31.73310 | 36962 ft | 439 kts | 213° |
| 2026-05-01 13:20 | 38.36567 | 31.69850 | 36978 ft | 438 kts | 213° |
| 2026-05-01 13:21 | 38.28389 | 31.64678 | 36969 ft | 438 kts | 213° |
| 2026-05-01 13:21 | 38.22939 | 31.61240 | 36969 ft | 436 kts | 213° |
| 2026-05-01 13:22 | 38.17546 | 31.57842 | 36984 ft | 435 kts | 213° |
| 2026-05-01 13:22 | 38.12131 | 31.54436 | 36977 ft | 434 kts | 213° |
| 2026-05-01 13:23 | 38.06695 | 31.51108 | 36975 ft | 433 kts | 212° |
| 2026-05-01 13:23 | 38.01232 | 31.47847 | 36974 ft | 434 kts | 212° |
| 2026-05-01 13:24 | 37.95791 | 31.44595 | 36968 ft | 436 kts | 212° |
| 2026-05-01 13:25 | 37.87567 | 31.39673 | 36954 ft | 436 kts | 213° |
| 2026-05-01 13:25 | 37.82085 | 31.36393 | 36954 ft | 436 kts | 213° |
| 2026-05-01 13:26 | 37.76603 | 31.33119 | 36974 ft | 436 kts | 213° |
| 2026-05-01 13:26 | 37.71129 | 31.29857 | 36935 ft | 438 kts | 213° |
| 2026-05-01 13:27 | 37.65615 | 31.26575 | 36956 ft | 438 kts | 213° |
| 2026-05-01 13:27 | 37.57316 | 31.21648 | 36935 ft | 440 kts | 213° |
| 2026-05-01 13:28 | 37.49080 | 31.16771 | 36982 ft | 434 kts | 213° |
| 2026-05-01 13:29 | 37.38255 | 31.10376 | 36941 ft | 430 kts | 214° |
| 2026-05-01 13:31 | 37.22239 | 30.99716 | 36946 ft | 433 kts | 217° |
| 2026-05-01 13:32 | 37.09049 | 30.90798 | 36937 ft | 433 kts | 217° |
| 2026-05-01 13:33 | 36.95885 | 30.81973 | 36939 ft | 432 kts | 214° |
| 2026-05-01 13:34 | 36.89974 | 30.79799 | 36945 ft | 454 kts | 199° |
| 2026-05-01 13:34 | 36.83527 | 30.79523 | 36948 ft | 470 kts | 188° |
| 2026-05-01 13:35 | 36.73664 | 30.80030 | 36937 ft | 474 kts | 187° |
| 2026-05-01 13:36 | 36.63795 | 30.80419 | 36906 ft | 476 kts | 188° |
| 2026-05-01 13:36 | 36.53853 | 30.80766 | 36922 ft | 477 kts | 188° |
| 2026-05-01 13:37 | 36.48330 | 30.80961 | 36912 ft | 478 kts | 188° |
| 2026-05-01 13:37 | 36.40600 | 30.81235 | 36912 ft | 478 kts | 188° |
| 2026-05-01 13:38 | 36.30643 | 30.81555 | 36908 ft | 477 kts | 188° |
| 2026-05-01 13:39 | 36.24017 | 30.81765 | 36908 ft | 476 kts | 188° |
| 2026-05-01 13:39 | 36.17413 | 30.81976 | 36902 ft | 474 kts | 188° |
| 2026-05-01 13:40 | 36.10858 | 30.82185 | 36907 ft | 474 kts | 188° |
| 2026-05-01 13:40 | 36.04267 | 30.82394 | 36911 ft | 474 kts | 188° |
| 2026-05-01 13:41 | 35.97663 | 30.82740 | 36898 ft | 476 kts | 186° |
| 2026-05-01 13:41 | 35.91050 | 30.83184 | 36919 ft | 476 kts | 186° |
| 2026-05-01 13:42 | 35.84437 | 30.83609 | 36909 ft | 476 kts | 186° |
| 2026-05-01 13:42 | 35.77869 | 30.84013 | 36902 ft | 476 kts | 186° |
| 2026-05-01 13:43 | 35.71253 | 30.84416 | 36912 ft | 476 kts | 186° |
| 2026-05-01 13:43 | 35.64635 | 30.84820 | 36920 ft | 476 kts | 186° |
| 2026-05-01 13:44 | 35.58017 | 30.85177 | 36883 ft | 475 kts | 187° |
| 2026-05-01 13:44 | 35.51460 | 30.85383 | 36918 ft | 474 kts | 188° |
| 2026-05-01 13:45 | 35.44856 | 30.85581 | 36921 ft | 475 kts | 187° |
| 2026-05-01 13:45 | 35.38243 | 30.85800 | 36923 ft | 476 kts | 187° |
| 2026-05-01 13:46 | 35.31626 | 30.86028 | 36920 ft | 475 kts | 187° |
| 2026-05-01 13:46 | 35.25052 | 30.86253 | 36931 ft | 476 kts | 187° |
| 2026-05-01 13:47 | 35.18428 | 30.86478 | 36933 ft | 477 kts | 187° |
| 2026-05-01 13:47 | 35.11796 | 30.86696 | 36924 ft | 477 kts | 187° |
| 2026-05-01 13:48 | 35.05165 | 30.86908 | 36933 ft | 477 kts | 187° |
| 2026-05-01 13:48 | 34.98527 | 30.87120 | 36938 ft | 477 kts | 187° |
| 2026-05-01 13:49 | 34.91923 | 30.87332 | 36938 ft | 478 kts | 187° |
| 2026-05-01 13:49 | 34.85283 | 30.87546 | 36937 ft | 477 kts | 187° |
| 2026-05-01 13:50 | 34.79760 | 30.87723 | 36941 ft | 478 kts | 187° |
| 2026-05-01 13:50 | 34.73109 | 30.87935 | 36940 ft | 478 kts | 187° |
| 2026-05-01 13:51 | 34.66457 | 30.88148 | 36932 ft | 478 kts | 187° |
| 2026-05-01 13:51 | 34.58724 | 30.88418 | 36942 ft | 479 kts | 186° |
| 2026-05-01 13:52 | 34.53174 | 30.88704 | 36940 ft | 481 kts | 186° |
| 2026-05-01 13:52 | 34.46490 | 30.89068 | 36924 ft | 481 kts | 186° |
| 2026-05-01 13:53 | 34.39803 | 30.89416 | 36942 ft | 481 kts | 186° |
| 2026-05-01 13:53 | 34.29760 | 30.89923 | 36944 ft | 482 kts | 186° |
| 2026-05-01 13:54 | 34.23099 | 30.90261 | 36950 ft | 483 kts | 186° |
| 2026-05-01 13:54 | 34.16388 | 30.90630 | 36947 ft | 483 kts | 186° |
| 2026-05-01 13:55 | 34.09674 | 30.91007 | 36949 ft | 483 kts | 186° |
| 2026-05-01 13:55 | 34.02961 | 30.91378 | 36951 ft | 483 kts | 186° |
| 2026-05-01 13:56 | 33.96300 | 30.91745 | 36944 ft | 482 kts | 186° |
| 2026-05-01 13:56 | 33.89603 | 30.92053 | 36952 ft | 481 kts | 187° |
| 2026-05-01 13:57 | 33.82909 | 30.92287 | 36953 ft | 481 kts | 187° |
| 2026-05-01 13:57 | 33.76218 | 30.92523 | 36932 ft | 481 kts | 187° |
| 2026-05-01 13:58 | 33.69521 | 30.92771 | 36943 ft | 482 kts | 187° |
| 2026-05-01 13:58 | 33.62859 | 30.93022 | 36961 ft | 483 kts | 187° |
| 2026-05-01 13:59 | 33.56134 | 30.93275 | 36952 ft | 484 kts | 187° |
| 2026-05-01 13:59 | 33.49405 | 30.93528 | 36953 ft | 484 kts | 187° |
| 2026-05-01 14:00 | 33.42670 | 30.93781 | 36961 ft | 485 kts | 187° |
| 2026-05-01 14:00 | 33.35921 | 30.94033 | 36964 ft | 485 kts | 187° |
| 2026-05-01 14:01 | 33.29210 | 30.94284 | 36948 ft | 486 kts | 186° |
| 2026-05-01 14:01 | 33.22452 | 30.94536 | 36959 ft | 486 kts | 186° |
| 2026-05-01 14:02 | 33.15684 | 30.94788 | 36962 ft | 487 kts | 186° |
| 2026-05-01 14:02 | 33.08954 | 30.95081 | 36935 ft | 489 kts | 184° |
| 2026-05-01 14:03 | 33.02159 | 30.95805 | 36950 ft | 491 kts | 182° |
| 2026-05-01 14:03 | 32.95351 | 30.96611 | 36962 ft | 491 kts | 182° |
| 2026-05-01 14:04 | 32.88551 | 30.97396 | 36959 ft | 491 kts | 182° |
| 2026-05-01 14:04 | 32.81746 | 30.98158 | 36962 ft | 491 kts | 182° |
| 2026-05-01 14:05 | 32.74988 | 30.98907 | 36965 ft | 491 kts | 182° |
| 2026-05-01 14:05 | 32.68176 | 30.99661 | 36965 ft | 492 kts | 182° |
| 2026-05-01 14:06 | 32.61357 | 31.00417 | 36940 ft | 492 kts | 182° |
| 2026-05-01 14:06 | 32.54533 | 31.01173 | 36962 ft | 493 kts | 182° |
| 2026-05-01 14:07 | 32.47747 | 31.01923 | 36973 ft | 493 kts | 182° |
| 2026-05-01 14:08 | 32.37483 | 31.03056 | 36933 ft | 494 kts | 182° |
| 2026-05-01 14:08 | 32.30637 | 31.03810 | 36965 ft | 495 kts | 182° |
| 2026-05-01 14:09 | 32.23779 | 31.04564 | 36970 ft | 495 kts | 182° |
| 2026-05-01 14:09 | 32.16956 | 31.05313 | 36967 ft | 496 kts | 182° |
| 2026-05-01 14:10 | 32.10081 | 31.06068 | 36953 ft | 496 kts | 182° |
| 2026-05-01 14:10 | 32.03206 | 31.06821 | 36968 ft | 497 kts | 182° |
| 2026-05-01 14:11 | 31.96318 | 31.07573 | 36966 ft | 497 kts | 182° |
| 2026-05-01 14:11 | 31.86011 | 31.08699 | 36972 ft | 498 kts | 182° |
| 2026-05-01 14:12 | 31.79112 | 31.09451 | 36972 ft | 498 kts | 182° |
| 2026-05-01 14:12 | 31.72208 | 31.10203 | 36973 ft | 498 kts | 182° |
| 2026-05-01 14:13 | 31.65309 | 31.10953 | 36970 ft | 498 kts | 182° |
| 2026-05-01 14:13 | 31.58411 | 31.11703 | 36971 ft | 498 kts | 182° |
| 2026-05-01 14:14 | 31.51558 | 31.12503 | 36967 ft | 501 kts | 179° |
| 2026-05-01 14:14 | 31.44656 | 31.13765 | 36972 ft | 503 kts | 178° |
| 2026-05-01 14:15 | 31.37746 | 31.15086 | 36952 ft | 503 kts | 178° |
| 2026-05-01 14:15 | 31.30832 | 31.16366 | 36959 ft | 504 kts | 178° |
| 2026-05-01 14:16 | 31.23956 | 31.17625 | 36956 ft | 504 kts | 178° |
| 2026-05-01 14:16 | 31.17014 | 31.18915 | 36951 ft | 505 kts | 178° |
| 2026-05-01 14:17 | 31.10074 | 31.20218 | 36946 ft | 505 kts | 178° |
| 2026-05-01 14:17 | 31.03131 | 31.21517 | 36944 ft | 506 kts | 178° |
| 2026-05-01 14:18 | 30.96181 | 31.22813 | 36940 ft | 506 kts | 178° |
| 2026-05-01 14:18 | 30.90399 | 31.23889 | 36939 ft | 506 kts | 178° |
| 2026-05-01 14:19 | 30.82317 | 31.25391 | 36931 ft | 506 kts | 178° |
| 2026-05-01 14:19 | 30.75366 | 31.26681 | 36935 ft | 506 kts | 178° |
| 2026-05-01 14:20 | 30.64928 | 31.28614 | 36931 ft | 506 kts | 178° |
| 2026-05-01 14:21 | 30.58037 | 31.29888 | 36924 ft | 506 kts | 178° |
| 2026-05-01 14:21 | 30.51087 | 31.31172 | 36927 ft | 506 kts | 178° |
| 2026-05-01 14:22 | 30.40641 | 31.33089 | 36926 ft | 506 kts | 178° |
| 2026-05-01 14:22 | 30.33681 | 31.34354 | 36926 ft | 506 kts | 178° |
| 2026-05-01 14:23 | 30.26710 | 31.35621 | 36926 ft | 508 kts | 178° |
| 2026-05-01 14:23 | 30.19771 | 31.36882 | 36940 ft | 508 kts | 178° |
| 2026-05-01 14:24 | 30.12779 | 31.38358 | 36913 ft | 523 kts | 168° |
| 2026-05-01 14:24 | 30.09424 | 31.40144 | 36944 ft | 540 kts | 152° |
| 2026-05-01 14:24 | 30.06431 | 31.42848 | 36941 ft | 554 kts | 136° |
| 2026-05-01 14:25 | 30.01772 | 31.50029 | 36947 ft | 564 kts | 126° |
| 2026-05-01 14:25 | 29.97272 | 31.57363 | 36938 ft | 560 kts | 128° |
| 2026-05-01 14:26 | 29.90350 | 31.68077 | 36963 ft | 554 kts | 128° |
| 2026-05-01 14:27 | 29.85760 | 31.75217 | 36975 ft | 555 kts | 128° |
| 2026-05-01 14:27 | 29.81229 | 31.82420 | 36973 ft | 556 kts | 123° |
| 2026-05-01 14:28 | 29.77748 | 31.90300 | 36987 ft | 557 kts | 111° |
| 2026-05-01 14:28 | 29.76456 | 31.94492 | 36975 ft | 556 kts | 104° |
| 2026-05-01 14:28 | 29.74575 | 32.03109 | 36976 ft | 555 kts | 102° |
| 2026-05-01 14:29 | 29.72749 | 32.11749 | 36963 ft | 555 kts | 102° |
| 2026-05-01 14:30 | 29.68941 | 32.28892 | 36963 ft | 555 kts | 103° |
| 2026-05-01 14:31 | 29.66046 | 32.41761 | 36947 ft | 554 kts | 103° |
| 2026-05-01 14:31 | 29.64115 | 32.50332 | 36943 ft | 554 kts | 103° |
| 2026-05-01 14:32 | 29.62181 | 32.58891 | 36940 ft | 553 kts | 103° |
| 2026-05-01 14:32 | 29.59737 | 32.67195 | 36932 ft | 552 kts | 115° |
| 2026-05-01 14:33 | 29.55979 | 32.74860 | 36926 ft | 550 kts | 127° |
| 2026-05-01 14:33 | 29.51363 | 32.81839 | 36936 ft | 549 kts | 130° |
| 2026-05-01 14:34 | 29.46692 | 32.88778 | 36922 ft | 550 kts | 129° |
| 2026-05-01 14:34 | 29.42086 | 32.95711 | 36934 ft | 551 kts | 129° |
| 2026-05-01 14:35 | 29.37462 | 33.02726 | 36920 ft | 552 kts | 129° |
| 2026-05-01 14:35 | 29.32830 | 33.09749 | 36931 ft | 553 kts | 129° |
| 2026-05-01 14:36 | 29.28181 | 33.16775 | 36931 ft | 553 kts | 129° |
| 2026-05-01 14:36 | 29.23565 | 33.23745 | 36930 ft | 552 kts | 129° |
| 2026-05-01 14:37 | 29.18925 | 33.30739 | 36923 ft | 550 kts | 129° |
| 2026-05-01 14:37 | 29.14294 | 33.37674 | 36941 ft | 548 kts | 129° |
| 2026-05-01 14:37 | 29.11974 | 33.41155 | 36517 ft | 555 kts | 129° |
| 2026-05-01 14:38 | 29.09622 | 33.44683 | 35736 ft | 556 kts | 129° |
| 2026-05-01 14:38 | 29.07306 | 33.48161 | 34902 ft | 544 kts | 129° |
| 2026-05-01 14:38 | 29.05025 | 33.51581 | 34072 ft | 541 kts | 128° |
| 2026-05-01 14:38 | 29.02766 | 33.54962 | 33087 ft | 544 kts | 128° |
| 2026-05-01 14:39 | 29.00466 | 33.58399 | 32107 ft | 546 kts | 129° |
| 2026-05-01 14:39 | 28.98156 | 33.61849 | 31134 ft | 547 kts | 129° |
| 2026-05-01 14:39 | 28.95845 | 33.65300 | 30151 ft | 548 kts | 129° |
| 2026-05-01 14:39 | 28.93544 | 33.68733 | 29423 ft | 540 kts | 129° |
| 2026-05-01 14:40 | 28.91277 | 33.72114 | 28720 ft | 533 kts | 129° |
| 2026-05-01 14:40 | 28.89038 | 33.75448 | 28075 ft | 525 kts | 129° |
| 2026-05-01 14:40 | 28.86714 | 33.78622 | 27441 ft | 517 kts | 136° |
| 2026-05-01 14:40 | 28.84150 | 33.81448 | 26813 ft | 509 kts | 141° |
| 2026-05-01 14:41 | 28.81433 | 33.83984 | 26177 ft | 501 kts | 146° |
| 2026-05-01 14:41 | 28.78613 | 33.86167 | 25569 ft | 493 kts | 152° |
| 2026-05-01 14:41 | 28.75689 | 33.88179 | 24965 ft | 489 kts | 152° |
| 2026-05-01 14:41 | 28.72794 | 33.90187 | 24342 ft | 485 kts | 152° |
| 2026-05-01 14:42 | 28.69930 | 33.92188 | 23718 ft | 482 kts | 152° |
| 2026-05-01 14:42 | 28.67086 | 33.94186 | 23018 ft | 479 kts | 152° |
| 2026-05-01 14:42 | 28.64270 | 33.96170 | 22349 ft | 474 kts | 152° |
| 2026-05-01 14:42 | 28.61483 | 33.98138 | 21728 ft | 469 kts | 152° |
| 2026-05-01 14:43 | 28.58724 | 34.00085 | 21127 ft | 464 kts | 152° |
| 2026-05-01 14:43 | 28.56000 | 34.02007 | 20530 ft | 459 kts | 152° |
| 2026-05-01 14:43 | 28.53333 | 34.03885 | 19939 ft | 455 kts | 152° |
| 2026-05-01 14:43 | 28.50651 | 34.05771 | 19354 ft | 451 kts | 152° |
| 2026-05-01 14:44 | 28.47987 | 34.07644 | 18763 ft | 448 kts | 152° |
| 2026-05-01 14:44 | 28.42729 | 34.11338 | 17492 ft | 441 kts | 152° |
| 2026-05-01 14:44 | 28.40182 | 34.13152 | 16842 ft | 421 kts | 149° |
| 2026-05-01 14:45 | 28.37810 | 34.14930 | 16347 ft | 409 kts | 151° |
| 2026-05-01 14:45 | 28.33012 | 34.18231 | 15422 ft | 398 kts | 152° |
| 2026-05-01 14:45 | 28.30638 | 34.19846 | 14933 ft | 399 kts | 152° |
| 2026-05-01 14:46 | 28.28248 | 34.21493 | 14372 ft | 406 kts | 151° |
| 2026-05-01 14:46 | 28.23338 | 34.24903 | 13217 ft | 419 kts | 150° |
| 2026-05-01 14:46 | 28.20871 | 34.26642 | 12631 ft | 416 kts | 150° |
| 2026-05-01 14:47 | 28.18421 | 34.28355 | 12067 ft | 412 kts | 150° |
| 2026-05-01 14:47 | 28.16024 | 34.30028 | 11516 ft | 409 kts | 149° |
| 2026-05-01 14:47 | 28.13614 | 34.31711 | 11018 ft | 400 kts | 149° |
| 2026-05-01 14:48 | 28.09295 | 34.34729 | 10639 ft | 332 kts | 150° |
| 2026-05-01 14:48 | 28.07413 | 34.36043 | 10531 ft | 304 kts | 150° |
| 2026-05-01 14:48 | 28.03988 | 34.38424 | 10347 ft | 297 kts | 150° |
| 2026-05-01 14:49 | 28.00251 | 34.40631 | 10077 ft | 301 kts | 174° |
| 2026-05-01 14:49 | 27.96292 | 34.39871 | 9555 ft | 292 kts | 206° |
| 2026-05-01 14:50 | 27.93122 | 34.38451 | 8993 ft | 296 kts | 206° |
| 2026-05-01 14:50 | 27.88772 | 34.36514 | 8215 ft | 276 kts | 205° |
| 2026-05-01 14:51 | 27.86983 | 34.35722 | 7914 ft | 280 kts | 205° |
| 2026-05-01 14:51 | 27.83302 | 34.34097 | 7306 ft | 289 kts | 205° |
| 2026-05-01 14:52 | 27.79562 | 34.32459 | 6661 ft | 288 kts | 205° |
| 2026-05-01 14:52 | 27.77699 | 34.31643 | 6342 ft | 287 kts | 205° |
| 2026-05-01 14:52 | 27.74785 | 34.29072 | 5641 ft | 251 kts | 250° |
| 2026-05-01 14:53 | 27.74400 | 34.27267 | 5346 ft | 226 kts | 272° |
| 2026-05-01 14:53 | 27.74550 | 34.25590 | 5086 ft | 206 kts | 288° |
| 2026-05-01 14:53 | 27.75058 | 34.24151 | 4868 ft | 198 kts | 302° |
| 2026-05-01 14:53 | 27.75891 | 34.22953 | 4641 ft | 192 kts | 317° |
| 2026-05-01 14:54 | 27.76971 | 34.22107 | 4396 ft | 188 kts | 333° |
| 2026-05-01 14:54 | 27.78221 | 34.21659 | 4218 ft | 191 kts | 348° |
| 2026-05-01 14:54 | 27.79519 | 34.21626 | 4028 ft | 183 kts | 1° |
| 2026-05-01 14:54 | 27.80715 | 34.21962 | 3922 ft | 173 kts | 28° |
| 2026-05-01 14:55 | 27.81602 | 34.22744 | 3837 ft | 150 kts | 28° |
| 2026-05-01 14:55 | 27.82434 | 34.23387 | 3773 ft | 147 kts | 30° |
| 2026-05-01 14:55 | 27.83248 | 34.24127 | 3600 ft | 151 kts | 34° |
| 2026-05-01 14:55 | 27.84030 | 34.24898 | 3427 ft | 151 kts | 36° |
| 2026-05-01 14:56 | 27.84809 | 34.25694 | 3226 ft | 151 kts | 36° |
| 2026-05-01 14:56 | 27.85581 | 34.26495 | 3035 ft | 150 kts | 36° |
| 2026-05-01 14:56 | 27.86350 | 34.27293 | 2856 ft | 151 kts | 36° |
| 2026-05-01 14:56 | 27.87116 | 34.28091 | 2674 ft | 149 kts | 36° |
| 2026-05-01 14:57 | 27.87869 | 34.28876 | 2455 ft | 145 kts | 41° |
| 2026-05-01 14:57 | 27.89353 | 34.30429 | 2108 ft | 147 kts | 42° |
| 2026-05-01 14:57 | 27.90093 | 34.31203 | 1928 ft | 146 kts | 43° |
| 2026-05-01 14:58 | 27.90833 | 34.31975 | 1739 ft | 144 kts | 43° |
| 2026-05-01 14:58 | 27.91563 | 34.32738 | 1564 ft | 141 kts | 44° |
| 2026-05-01 14:58 | 27.92281 | 34.33487 | 1374 ft | 140 kts | 44° |
| 2026-05-01 14:58 | 27.93006 | 34.34247 | 1201 ft | 144 kts | 44° |
| 2026-05-01 14:59 | 27.93727 | 34.35001 | 1004 ft | 139 kts | 43° |
| 2026-05-01 14:59 | 27.94442 | 34.35747 | 820 ft | 140 kts | 44° |
| 2026-05-01 14:59 | 27.95154 | 34.36493 | 635 ft | 142 kts | 45° |
| 2026-05-01 14:59 | 27.95869 | 34.37237 | 454 ft | 139 kts | 44° |
| 2026-05-01 15:00 | 27.97286 | 34.38718 | 180 ft | 131 kts | 43° |
| 2026-05-01 15:00 | 27.97856 | 34.39301 | 179 ft | 88 kts | 42° |
| 2026-05-01 15:00 | 27.98196 | 34.39653 | 179 ft | 48 kts | 43° |
| 2026-05-01 15:01 | 27.98414 | 34.39882 | 177 ft | 31 kts | 42° |
| 2026-05-01 15:01 | 27.98506 | 34.39960 | 177 ft | 12 kts | 8° |
| 2026-05-01 15:01 | 27.98581 | 34.39915 | 178 ft | 12 kts | 320° |
| 2026-05-01 15:01 | 27.98610 | 34.39881 | 178 ft | 0 kts | 312° |
| 2026-05-01 15:02 | 27.98614 | 34.39876 | 178 ft | 0 kts | 312° |
| 2026-05-01 15:02 | 27.98619 | 34.39868 | 178 ft | 3 kts | 305° |
| 2026-05-01 15:02 | 27.98629 | 34.39840 | 179 ft | 5 kts | 281° |
| 2026-05-01 15:03 | 27.98620 | 34.39804 | 179 ft | 5 kts | 240° |
| 2026-05-01 15:03 | 27.98595 | 34.39770 | 179 ft | 6 kts | 228° |
| 2026-05-01 15:03 | 27.98562 | 34.39733 | 179 ft | 8 kts | 223° |
| 2026-05-01 15:03 | 27.98518 | 34.39686 | 179 ft | 9 kts | 223° |
| 2026-05-01 15:04 | 27.98470 | 34.39636 | 179 ft | 10 kts | 222° |
| 2026-05-01 15:04 | 27.98420 | 34.39585 | 179 ft | 11 kts | 222° |
| 2026-05-01 15:04 | 27.98356 | 34.39519 | 179 ft | 13 kts | 222° |
| 2026-05-01 15:04 | 27.98286 | 34.39447 | 178 ft | 14 kts | 223° |
| 2026-05-01 15:05 | 27.98210 | 34.39366 | 177 ft | 15 kts | 223° |
| 2026-05-01 15:05 | 27.98133 | 34.39286 | 177 ft | 15 kts | 223° |
| 2026-05-01 15:05 | 27.98056 | 34.39206 | 177 ft | 15 kts | 223° |
| 2026-05-01 15:05 | 27.97979 | 34.39127 | 177 ft | 15 kts | 222° |
| 2026-05-01 15:06 | 27.97911 | 34.39056 | 177 ft | 12 kts | 222° |
| 2026-05-01 15:06 | 27.97856 | 34.38999 | 177 ft | 9 kts | 223° |
| 2026-05-01 15:06 | 27.97835 | 34.38935 | 177 ft | 10 kts | 289° |
| 2026-05-01 15:06 | 27.97871 | 34.38881 | 177 ft | 6 kts | 311° |
| 2026-05-01 15:07 | 27.97871 | 34.38880 | 177 ft | 0 kts | 311° |